Witch Wells, Arizona
Current Conditions -  °F | °C
As of 3:54 AM on Friday 31 Oct 2014 (Local Time) from KSJN Reporting Station
Clear Clear  
Wind Chill:   Ceiling: Unl
Heat Index:   Visibility: 10mi
Dew Point: -4°   Wind: 8mph
Humidity: 42%   Direction: 100°E
Pressure: 30.21"   Gusts: NA
Location:  34.4981°N, 109.241°W
Report Text: KSJN 311054Z AUTO 10007KT 10SM CLR 08/M04 A3021 RMK AO2 SLP157 T00831039
Loading
Personal Weather Stations






























Interactive Weather Map
Tropical Storm Tracking
New forecast layout! Learn more

10-Day Weather Forecast

Advertisements
Track Severe Weather on mobile